sensor_id;sensor_type;location;lat;lon;timestamp;P1;durP1;ratioP1;P2;durP2;ratioP2
52978;SDS011;63430;53.186;6.598;2023-04-08T00:00:49;18.65;;;17.35;;
52978;SDS011;63430;53.186;6.598;2023-04-08T00:02:52;19.00;;;17.70;;
52978;SDS011;63430;53.186;6.598;2023-04-08T00:04:55;17.77;;;16.50;;
52978;SDS011;63430;53.186;6.598;2023-04-08T00:06:58;18.27;;;16.98;;
52978;SDS011;63430;53.186;6.598;2023-04-08T00:09:03;17.33;;;15.65;;
52978;SDS011;63430;53.186;6.598;2023-04-08T00:11:13;16.42;;;15.05;;
52978;SDS011;63430;53.186;6.598;2023-04-08T00:13:24;17.27;;;15.80;;
52978;SDS011;63430;53.186;6.598;2023-04-08T00:15:27;18.33;;;16.65;;
52978;SDS011;63430;53.186;6.598;2023-04-08T00:17:29;17.95;;;16.58;;
52978;SDS011;63430;53.186;6.598;2023-04-08T00:19:42;16.85;;;15.35;;
52978;SDS011;63430;53.186;6.598;2023-04-08T00:21:45;17.38;;;15.98;;
52978;SDS011;63430;53.186;6.598;2023-04-08T00:23:48;17.00;;;15.60;;
52978;SDS011;63430;53.186;6.598;2023-04-08T00:25:54;16.73;;;15.40;;
52978;SDS011;63430;53.186;6.598;2023-04-08T00:27:56;17.80;;;16.27;;
52978;SDS011;63430;53.186;6.598;2023-04-08T00:29:59;16.95;;;15.45;;
52978;SDS011;63430;53.186;6.598;2023-04-08T00:32:06;18.13;;;16.63;;
52978;SDS011;63430;53.186;6.598;2023-04-08T00:34:08;17.73;;;16.42;;
52978;SDS011;63430;53.186;6.598;2023-04-08T00:38:15;17.00;;;15.70;;
52978;SDS011;63430;53.186;6.598;2023-04-08T00:40:18;17.38;;;16.00;;
52978;SDS011;63430;53.186;6.598;2023-04-08T00:42:23;17.75;;;16.25;;
52978;SDS011;63430;53.186;6.598;2023-04-08T00:44:27;18.85;;;17.25;;
52978;SDS011;63430;53.186;6.598;2023-04-08T00:46:30;18.85;;;17.50;;
52978;SDS011;63430;53.186;6.598;2023-04-08T00:48:37;17.80;;;16.52;;
52978;SDS011;63430;53.186;6.598;2023-04-08T00:50:41;18.90;;;17.55;;
52978;SDS011;63430;53.186;6.598;2023-04-08T00:54:48;15.95;;;14.80;;
52978;SDS011;63430;53.186;6.598;2023-04-08T00:56:51;17.42;;;16.05;;
52978;SDS011;63430;53.186;6.598;2023-04-08T00:58:56;17.45;;;16.15;;
52978;SDS011;63430;53.186;6.598;2023-04-08T01:01:01;20.35;;;18.73;;
52978;SDS011;63430;53.186;6.598;2023-04-08T01:03:24;18.55;;;17.00;;
52978;SDS011;63430;53.186;6.598;2023-04-08T01:05:38;19.80;;;18.27;;
52978;SDS011;63430;53.186;6.598;2023-04-08T01:07:53;19.08;;;17.67;;
52978;SDS011;63430;53.186;6.598;2023-04-08T01:09:56;18.73;;;17.13;;
52978;SDS011;63430;53.186;6.598;2023-04-08T01:12:05;18.98;;;17.48;;
52978;SDS011;63430;53.186;6.598;2023-04-08T01:14:14;18.48;;;16.88;;
52978;SDS011;63430;53.186;6.598;2023-04-08T01:16:18;18.38;;;16.95;;
52978;SDS011;63430;53.186;6.598;2023-04-08T01:18:32;19.08;;;17.38;;
52978;SDS011;63430;53.186;6.598;2023-04-08T01:20:37;19.45;;;18.02;;
52978;SDS011;63430;53.186;6.598;2023-04-08T01:22:49;19.15;;;17.52;;
52978;SDS011;63430;53.186;6.598;2023-04-08T01:25:05;17.98;;;16.48;;
52978;SDS011;63430;53.186;6.598;2023-04-08T01:27:16;17.60;;;16.10;;
52978;SDS011;63430;53.186;6.598;2023-04-08T01:29:19;18.30;;;16.98;;
52978;SDS011;63430;53.186;6.598;2023-04-08T01:31:22;18.48;;;16.92;;
52978;SDS011;63430;53.186;6.598;2023-04-08T01:33:26;17.42;;;16.02;;
52978;SDS011;63430;53.186;6.598;2023-04-08T01:35:30;18.90;;;17.40;;
52978;SDS011;63430;53.186;6.598;2023-04-08T01:37:34;25.77;;;16.58;;
52978;SDS011;63430;53.186;6.598;2023-04-08T01:39:38;19.10;;;17.45;;
52978;SDS011;63430;53.186;6.598;2023-04-08T01:41:42;28.10;;;26.05;;
52978;SDS011;63430;53.186;6.598;2023-04-08T01:43:48;19.43;;;17.73;;
52978;SDS011;63430;53.186;6.598;2023-04-08T01:45:53;17.48;;;16.08;;
52978;SDS011;63430;53.186;6.598;2023-04-08T01:47:59;18.70;;;17.40;;
52978;SDS011;63430;53.186;6.598;2023-04-08T01:50:05;18.80;;;17.23;;
52978;SDS011;63430;53.186;6.598;2023-04-08T01:52:09;20.08;;;18.25;;
52978;SDS011;63430;53.186;6.598;2023-04-08T01:54:14;19.48;;;17.90;;
52978;SDS011;63430;53.186;6.598;2023-04-08T01:56:18;20.57;;;18.90;;
52978;SDS011;63430;53.186;6.598;2023-04-08T01:58:28;19.98;;;18.08;;
52978;SDS011;63430;53.186;6.598;2023-04-08T02:00:39;18.85;;;17.33;;
52978;SDS011;63430;53.186;6.598;2023-04-08T02:02:48;20.00;;;18.50;;
52978;SDS011;63430;53.186;6.598;2023-04-08T02:04:52;19.73;;;17.92;;
52978;SDS011;63430;53.186;6.598;2023-04-08T02:06:55;19.67;;;17.88;;
52978;SDS011;63430;53.186;6.598;2023-04-08T02:08:59;20.92;;;19.05;;
52978;SDS011;63430;53.186;6.598;2023-04-08T02:11:04;20.23;;;18.48;;
52978;SDS011;63430;53.186;6.598;2023-04-08T02:13:07;19.95;;;18.38;;
52978;SDS011;63430;53.186;6.598;2023-04-08T02:15:10;19.65;;;18.17;;
52978;SDS011;63430;53.186;6.598;2023-04-08T02:17:17;21.80;;;20.05;;
52978;SDS011;63430;53.186;6.598;2023-04-08T02:19:24;21.20;;;19.05;;
52978;SDS011;63430;53.186;6.598;2023-04-08T02:21:32;20.40;;;18.58;;
52978;SDS011;63430;53.186;6.598;2023-04-08T02:23:42;19.35;;;17.75;;
52978;SDS011;63430;53.186;6.598;2023-04-08T02:25:49;19.23;;;17.63;;
52978;SDS011;63430;53.186;6.598;2023-04-08T02:28:02;21.33;;;19.52;;
52978;SDS011;63430;53.186;6.598;2023-04-08T02:30:09;21.08;;;18.90;;
52978;SDS011;63430;53.186;6.598;2023-04-08T02:32:15;19.55;;;17.88;;
52978;SDS011;63430;53.186;6.598;2023-04-08T02:34:19;21.20;;;19.40;;
52978;SDS011;63430;53.186;6.598;2023-04-08T02:36:23;19.42;;;17.85;;
52978;SDS011;63430;53.186;6.598;2023-04-08T02:38:27;21.27;;;19.52;;
52978;SDS011;63430;53.186;6.598;2023-04-08T02:40:31;20.08;;;18.48;;
52978;SDS011;63430;53.186;6.598;2023-04-08T02:42:37;20.20;;;18.33;;
52978;SDS011;63430;53.186;6.598;2023-04-08T02:44:40;20.50;;;18.70;;
52978;SDS011;63430;53.186;6.598;2023-04-08T02:46:42;21.38;;;19.45;;
52978;SDS011;63430;53.186;6.598;2023-04-08T02:48:48;20.85;;;19.20;;
52978;SDS011;63430;53.186;6.598;2023-04-08T02:50:51;20.60;;;18.65;;
52978;SDS011;63430;53.186;6.598;2023-04-08T02:53:13;19.30;;;17.73;;
52978;SDS011;63430;53.186;6.598;2023-04-08T02:55:16;19.85;;;18.10;;
52978;SDS011;63430;53.186;6.598;2023-04-08T02:57:20;20.98;;;18.95;;
52978;SDS011;63430;53.186;6.598;2023-04-08T02:59:23;21.08;;;19.17;;
52978;SDS011;63430;53.186;6.598;2023-04-08T03:03:30;23.98;;;21.50;;
52978;SDS011;63430;53.186;6.598;2023-04-08T03:05:35;31.60;;;23.00;;
52978;SDS011;63430;53.186;6.598;2023-04-08T03:07:38;26.10;;;23.50;;
52978;SDS011;63430;53.186;6.598;2023-04-08T03:09:41;27.00;;;24.10;;
52978;SDS011;63430;53.186;6.598;2023-04-08T03:11:43;25.17;;;22.77;;
52978;SDS011;63430;53.186;6.598;2023-04-08T03:13:46;30.63;;;22.83;;
52978;SDS011;63430;53.186;6.598;2023-04-08T03:15:49;28.88;;;25.92;;
52978;SDS011;63430;53.186;6.598;2023-04-08T03:17:52;28.75;;;25.70;;
52978;SDS011;63430;53.186;6.598;2023-04-08T03:19:55;27.65;;;24.75;;
52978;SDS011;63430;53.186;6.598;2023-04-08T03:22:00;32.13;;;28.85;;
52978;SDS011;63430;53.186;6.598;2023-04-08T03:24:02;28.60;;;25.27;;
52978;SDS011;63430;53.186;6.598;2023-04-08T03:26:06;28.77;;;24.35;;
52978;SDS011;63430;53.186;6.598;2023-04-08T03:28:09;27.85;;;25.08;;
52978;SDS011;63430;53.186;6.598;2023-04-08T03:30:12;24.80;;;22.02;;
52978;SDS011;63430;53.186;6.598;2023-04-08T03:32:15;25.10;;;22.67;;
52978;SDS011;63430;53.186;6.598;2023-04-08T03:34:17;26.05;;;23.45;;
52978;SDS011;63430;53.186;6.598;2023-04-08T03:36:20;25.33;;;22.90;;
52978;SDS011;63430;53.186;6.598;2023-04-08T03:38:25;28.42;;;25.45;;
52978;SDS011;63430;53.186;6.598;2023-04-08T03:40:28;26.15;;;23.45;;
52978;SDS011;63430;53.186;6.598;2023-04-08T03:42:31;29.50;;;26.42;;
52978;SDS011;63430;53.186;6.598;2023-04-08T03:44:35;28.27;;;24.95;;
52978;SDS011;63430;53.186;6.598;2023-04-08T03:46:38;24.58;;;22.23;;
52978;SDS011;63430;53.186;6.598;2023-04-08T03:48:40;24.48;;;21.98;;
52978;SDS011;63430;53.186;6.598;2023-04-08T03:50:43;22.48;;;20.38;;
52978;SDS011;63430;53.186;6.598;2023-04-08T03:52:46;24.15;;;21.80;;
52978;SDS011;63430;53.186;6.598;2023-04-08T03:54:51;22.30;;;20.25;;
52978;SDS011;63430;53.186;6.598;2023-04-08T03:56:55;20.92;;;19.15;;
52978;SDS011;63430;53.186;6.598;2023-04-08T03:58:58;22.80;;;20.90;;
52978;SDS011;63430;53.186;6.598;2023-04-08T04:01:01;22.65;;;20.85;;
52978;SDS011;63430;53.186;6.598;2023-04-08T04:03:14;23.55;;;21.38;;
52978;SDS011;63430;53.186;6.598;2023-04-08T04:05:20;22.75;;;20.45;;
52978;SDS011;63430;53.186;6.598;2023-04-08T04:07:24;24.10;;;21.92;;
52978;SDS011;63430;53.186;6.598;2023-04-08T04:09:27;23.90;;;21.60;;
52978;SDS011;63430;53.186;6.598;2023-04-08T04:11:32;22.05;;;20.08;;
52978;SDS011;63430;53.186;6.598;2023-04-08T04:13:35;22.80;;;20.80;;
52978;SDS011;63430;53.186;6.598;2023-04-08T04:15:38;26.95;;;24.38;;
52978;SDS011;63430;53.186;6.598;2023-04-08T04:17:41;24.33;;;22.05;;
52978;SDS011;63430;53.186;6.598;2023-04-08T04:19:44;32.33;;;28.85;;
52978;SDS011;63430;53.186;6.598;2023-04-08T04:21:47;38.30;;;29.23;;
52978;SDS011;63430;53.186;6.598;2023-04-08T04:23:49;31.45;;;28.10;;
52978;SDS011;63430;53.186;6.598;2023-04-08T04:26:01;29.65;;;26.63;;
52978;SDS011;63430;53.186;6.598;2023-04-08T04:28:11;29.92;;;26.95;;
52978;SDS011;63430;53.186;6.598;2023-04-08T04:30:13;29.15;;;25.88;;
52978;SDS011;63430;53.186;6.598;2023-04-08T04:32:16;32.38;;;28.95;;
52978;SDS011;63430;53.186;6.598;2023-04-08T04:34:20;31.27;;;28.10;;
52978;SDS011;63430;53.186;6.598;2023-04-08T04:36:22;33.17;;;29.90;;
52978;SDS011;63430;53.186;6.598;2023-04-08T04:38:25;35.85;;;32.15;;
52978;SDS011;63430;53.186;6.598;2023-04-08T04:40:30;32.25;;;28.95;;
52978;SDS011;63430;53.186;6.598;2023-04-08T04:42:32;34.63;;;28.60;;
52978;SDS011;63430;53.186;6.598;2023-04-08T04:44:37;34.30;;;30.50;;
52978;SDS011;63430;53.186;6.598;2023-04-08T04:46:40;29.45;;;26.50;;
52978;SDS011;63430;53.186;6.598;2023-04-08T04:48:43;28.63;;;25.77;;
52978;SDS011;63430;53.186;6.598;2023-04-08T04:50:53;28.85;;;25.40;;
52978;SDS011;63430;53.186;6.598;2023-04-08T04:52:56;28.85;;;24.10;;
52978;SDS011;63430;53.186;6.598;2023-04-08T04:54:59;30.95;;;27.88;;
52978;SDS011;63430;53.186;6.598;2023-04-08T04:57:01;26.73;;;23.92;;
52978;SDS011;63430;53.186;6.598;2023-04-08T04:59:05;24.83;;;22.50;;
52978;SDS011;63430;53.186;6.598;2023-04-08T05:01:10;26.55;;;24.05;;
52978;SDS011;63430;53.186;6.598;2023-04-08T05:03:14;27.65;;;24.25;;
52978;SDS011;63430;53.186;6.598;2023-04-08T05:05:18;28.23;;;24.08;;
52978;SDS011;63430;53.186;6.598;2023-04-08T05:07:20;25.80;;;23.27;;
52978;SDS011;63430;53.186;6.598;2023-04-08T05:09:23;26.60;;;23.88;;
52978;SDS011;63430;53.186;6.598;2023-04-08T05:11:26;26.23;;;23.73;;
52978;SDS011;63430;53.186;6.598;2023-04-08T05:13:29;25.77;;;23.35;;
52978;SDS011;63430;53.186;6.598;2023-04-08T05:15:35;27.90;;;25.42;;
52978;SDS011;63430;53.186;6.598;2023-04-08T05:17:40;27.17;;;24.55;;
52978;SDS011;63430;53.186;6.598;2023-04-08T05:19:43;26.42;;;23.85;;
52978;SDS011;63430;53.186;6.598;2023-04-08T05:21:46;27.55;;;24.92;;
52978;SDS011;63430;53.186;6.598;2023-04-08T05:23:48;25.55;;;23.05;;
52978;SDS011;63430;53.186;6.598;2023-04-08T05:25:58;26.80;;;24.10;;
52978;SDS011;63430;53.186;6.598;2023-04-08T05:28:01;28.33;;;25.52;;
52978;SDS011;63430;53.186;6.598;2023-04-08T05:30:05;29.63;;;26.73;;
52978;SDS011;63430;53.186;6.598;2023-04-08T05:32:09;26.88;;;24.08;;
52978;SDS011;63430;53.186;6.598;2023-04-08T05:34:18;28.98;;;25.67;;
52978;SDS011;63430;53.186;6.598;2023-04-08T05:36:24;26.80;;;24.33;;
52978;SDS011;63430;53.186;6.598;2023-04-08T05:38:28;28.17;;;25.35;;
52978;SDS011;63430;53.186;6.598;2023-04-08T05:40:30;29.27;;;26.35;;
52978;SDS011;63430;53.186;6.598;2023-04-08T05:42:33;30.75;;;27.88;;
52978;SDS011;63430;53.186;6.598;2023-04-08T05:44:42;31.15;;;28.13;;
52978;SDS011;63430;53.186;6.598;2023-04-08T05:46:45;33.42;;;30.08;;
52978;SDS011;63430;53.186;6.598;2023-04-08T05:48:48;38.15;;;34.60;;
52978;SDS011;63430;53.186;6.598;2023-04-08T05:50:54;38.38;;;34.65;;
52978;SDS011;63430;53.186;6.598;2023-04-08T05:52:57;45.03;;;40.75;;
52978;SDS011;63430;53.186;6.598;2023-04-08T05:55:00;46.05;;;42.08;;
52978;SDS011;63430;53.186;6.598;2023-04-08T05:57:03;51.35;;;46.30;;
52978;SDS011;63430;53.186;6.598;2023-04-08T05:59:06;59.67;;;55.33;;
52978;SDS011;63430;53.186;6.598;2023-04-08T06:01:09;53.40;;;49.38;;
52978;SDS011;63430;53.186;6.598;2023-04-08T06:03:11;93.65;;;87.60;;
52978;SDS011;63430;53.186;6.598;2023-04-08T06:05:14;83.85;;;78.43;;
52978;SDS011;63430;53.186;6.598;2023-04-08T06:07:20;71.30;;;65.65;;
52978;SDS011;63430;53.186;6.598;2023-04-08T06:09:22;47.28;;;43.55;;
52978;SDS011;63430;53.186;6.598;2023-04-08T06:11:25;49.67;;;45.40;;
52978;SDS011;63430;53.186;6.598;2023-04-08T06:13:29;55.50;;;50.95;;
52978;SDS011;63430;53.186;6.598;2023-04-08T06:15:31;55.63;;;50.38;;
52978;SDS011;63430;53.186;6.598;2023-04-08T06:17:35;53.10;;;48.15;;
52978;SDS011;63430;53.186;6.598;2023-04-08T06:19:38;49.00;;;44.42;;
52978;SDS011;63430;53.186;6.598;2023-04-08T06:21:41;53.67;;;48.78;;
52978;SDS011;63430;53.186;6.598;2023-04-08T06:23:46;49.78;;;45.38;;
52978;SDS011;63430;53.186;6.598;2023-04-08T06:25:48;61.10;;;55.67;;
52978;SDS011;63430;53.186;6.598;2023-04-08T06:27:53;54.72;;;49.75;;
52978;SDS011;63430;53.186;6.598;2023-04-08T06:29:56;32.55;;;29.65;;
52978;SDS011;63430;53.186;6.598;2023-04-08T06:31:59;26.52;;;23.85;;
52978;SDS011;63430;53.186;6.598;2023-04-08T06:34:01;27.02;;;24.42;;
52978;SDS011;63430;53.186;6.598;2023-04-08T06:36:05;29.65;;;25.15;;
52978;SDS011;63430;53.186;6.598;2023-04-08T06:40:13;30.40;;;28.13;;
52978;SDS011;63430;53.186;6.598;2023-04-08T06:42:16;34.40;;;31.83;;
52978;SDS011;63430;53.186;6.598;2023-04-08T06:44:45;26.42;;;24.13;;
52978;SDS011;63430;53.186;6.598;2023-04-08T06:46:48;22.48;;;20.27;;
52978;SDS011;63430;53.186;6.598;2023-04-08T06:48:50;24.40;;;22.15;;
52978;SDS011;63430;53.186;6.598;2023-04-08T06:50:54;25.50;;;23.23;;
52978;SDS011;63430;53.186;6.598;2023-04-08T06:52:57;27.77;;;25.05;;
52978;SDS011;63430;53.186;6.598;2023-04-08T06:54:59;24.45;;;22.17;;
52978;SDS011;63430;53.186;6.598;2023-04-08T06:57:05;23.23;;;20.73;;
52978;SDS011;63430;53.186;6.598;2023-04-08T06:59:08;25.15;;;22.63;;
52978;SDS011;63430;53.186;6.598;2023-04-08T07:01:11;29.25;;;26.20;;
52978;SDS011;63430;53.186;6.598;2023-04-08T07:03:15;25.95;;;23.58;;
52978;SDS011;63430;53.186;6.598;2023-04-08T07:05:18;27.15;;;24.58;;
52978;SDS011;63430;53.186;6.598;2023-04-08T07:07:20;27.60;;;25.05;;
52978;SDS011;63430;53.186;6.598;2023-04-08T07:09:25;29.80;;;26.77;;
52978;SDS011;63430;53.186;6.598;2023-04-08T07:11:27;24.02;;;22.02;;
52978;SDS011;63430;53.186;6.598;2023-04-08T07:13:32;27.00;;;23.75;;
52978;SDS011;63430;53.186;6.598;2023-04-08T07:15:35;27.80;;;25.15;;
52978;SDS011;63430;53.186;6.598;2023-04-08T07:17:38;28.85;;;26.20;;
52978;SDS011;63430;53.186;6.598;2023-04-08T07:19:43;61.15;;;57.22;;
52978;SDS011;63430;53.186;6.598;2023-04-08T07:21:46;40.25;;;37.13;;
52978;SDS011;63430;53.186;6.598;2023-04-08T07:23:49;43.55;;;40.50;;
52978;SDS011;63430;53.186;6.598;2023-04-08T07:25:51;57.08;;;52.88;;
52978;SDS011;63430;53.186;6.598;2023-04-08T07:27:54;21.98;;;19.83;;
52978;SDS011;63430;53.186;6.598;2023-04-08T07:30:00;22.05;;;20.05;;
52978;SDS011;63430;53.186;6.598;2023-04-08T07:32:04;28.48;;;25.60;;
52978;SDS011;63430;53.186;6.598;2023-04-08T07:34:06;23.52;;;21.40;;
52978;SDS011;63430;53.186;6.598;2023-04-08T07:36:09;26.73;;;24.38;;
52978;SDS011;63430;53.186;6.598;2023-04-08T07:38:13;26.02;;;23.77;;
52978;SDS011;63430;53.186;6.598;2023-04-08T07:40:16;22.13;;;19.90;;
52978;SDS011;63430;53.186;6.598;2023-04-08T07:42:20;24.52;;;22.13;;
52978;SDS011;63430;53.186;6.598;2023-04-08T07:44:23;21.55;;;19.65;;
52978;SDS011;63430;53.186;6.598;2023-04-08T07:46:28;26.38;;;24.05;;
52978;SDS011;63430;53.186;6.598;2023-04-08T07:48:32;23.30;;;21.10;;
52978;SDS011;63430;53.186;6.598;2023-04-08T07:50:36;21.38;;;19.25;;
52978;SDS011;63430;53.186;6.598;2023-04-08T07:52:58;20.20;;;18.40;;
52978;SDS011;63430;53.186;6.598;2023-04-08T07:55:01;20.35;;;18.35;;
52978;SDS011;63430;53.186;6.598;2023-04-08T07:57:08;21.33;;;19.33;;
52978;SDS011;63430;53.186;6.598;2023-04-08T07:59:11;22.70;;;20.60;;
52978;SDS011;63430;53.186;6.598;2023-04-08T08:01:15;20.58;;;18.67;;
52978;SDS011;63430;53.186;6.598;2023-04-08T08:03:22;22.33;;;20.27;;
52978;SDS011;63430;53.186;6.598;2023-04-08T08:05:31;21.10;;;18.98;;
52978;SDS011;63430;53.186;6.598;2023-04-08T08:07:37;20.75;;;18.77;;
52978;SDS011;63430;53.186;6.598;2023-04-08T08:09:39;20.55;;;18.65;;
52978;SDS011;63430;53.186;6.598;2023-04-08T08:11:42;18.20;;;16.35;;
52978;SDS011;63430;53.186;6.598;2023-04-08T08:13:49;20.98;;;18.88;;
52978;SDS011;63430;53.186;6.598;2023-04-08T08:15:52;31.42;;;29.25;;
52978;SDS011;63430;53.186;6.598;2023-04-08T08:17:55;19.30;;;17.30;;
52978;SDS011;63430;53.186;6.598;2023-04-08T08:20:00;17.95;;;16.25;;
52978;SDS011;63430;53.186;6.598;2023-04-08T08:22:05;18.25;;;16.50;;
52978;SDS011;63430;53.186;6.598;2023-04-08T08:24:07;19.40;;;17.50;;
52978;SDS011;63430;53.186;6.598;2023-04-08T08:26:10;21.08;;;19.20;;
52978;SDS011;63430;53.186;6.598;2023-04-08T08:28:18;18.00;;;16.27;;
52978;SDS011;63430;53.186;6.598;2023-04-08T08:30:21;21.98;;;19.83;;
52978;SDS011;63430;53.186;6.598;2023-04-08T08:32:24;19.13;;;17.13;;
52978;SDS011;63430;53.186;6.598;2023-04-08T08:34:26;18.90;;;16.58;;
52978;SDS011;63430;53.186;6.598;2023-04-08T08:36:31;18.75;;;16.92;;
52978;SDS011;63430;53.186;6.598;2023-04-08T08:38:35;24.70;;;22.02;;
52978;SDS011;63430;53.186;6.598;2023-04-08T08:40:37;21.80;;;18.10;;
52978;SDS011;63430;53.186;6.598;2023-04-08T08:42:40;23.35;;;20.50;;
52978;SDS011;63430;53.186;6.598;2023-04-08T08:44:43;22.67;;;20.48;;
52978;SDS011;63430;53.186;6.598;2023-04-08T08:46:46;23.20;;;20.85;;
52978;SDS011;63430;53.186;6.598;2023-04-08T08:48:49;19.75;;;17.70;;
52978;SDS011;63430;53.186;6.598;2023-04-08T08:50:52;22.08;;;19.98;;
52978;SDS011;63430;53.186;6.598;2023-04-08T08:52:57;21.85;;;19.42;;
52978;SDS011;63430;53.186;6.598;2023-04-08T08:55:07;22.10;;;18.73;;
52978;SDS011;63430;53.186;6.598;2023-04-08T08:57:30;19.65;;;17.52;;
52978;SDS011;63430;53.186;6.598;2023-04-08T08:59:37;20.17;;;18.10;;
52978;SDS011;63430;53.186;6.598;2023-04-08T09:01:40;22.45;;;20.35;;
52978;SDS011;63430;53.186;6.598;2023-04-08T09:03:45;22.90;;;19.70;;
52978;SDS011;63430;53.186;6.598;2023-04-08T09:05:51;21.15;;;18.35;;
52978;SDS011;63430;53.186;6.598;2023-04-08T09:07:56;19.92;;;17.50;;
52978;SDS011;63430;53.186;6.598;2023-04-08T09:09:59;23.58;;;21.45;;
52978;SDS011;63430;53.186;6.598;2023-04-08T09:12:02;19.05;;;17.20;;
52978;SDS011;63430;53.186;6.598;2023-04-08T09:14:20;19.85;;;17.75;;
52978;SDS011;63430;53.186;6.598;2023-04-08T09:16:27;20.77;;;18.48;;
52978;SDS011;63430;53.186;6.598;2023-04-08T09:18:33;25.02;;;22.58;;
52978;SDS011;63430;53.186;6.598;2023-04-08T09:20:37;20.75;;;18.02;;
52978;SDS011;63430;53.186;6.598;2023-04-08T09:22:59;20.45;;;17.15;;
52978;SDS011;63430;53.186;6.598;2023-04-08T09:25:14;18.70;;;16.98;;
52978;SDS011;63430;53.186;6.598;2023-04-08T09:27:32;19.17;;;17.33;;
52978;SDS011;63430;53.186;6.598;2023-04-08T09:29:36;19.52;;;17.27;;
52978;SDS011;63430;53.186;6.598;2023-04-08T09:31:40;19.75;;;17.65;;
52978;SDS011;63430;53.186;6.598;2023-04-08T09:33:43;22.15;;;20.13;;
52978;SDS011;63430;53.186;6.598;2023-04-08T09:35:46;17.75;;;16.15;;
52978;SDS011;63430;53.186;6.598;2023-04-08T09:37:49;18.88;;;17.08;;
52978;SDS011;63430;53.186;6.598;2023-04-08T09:39:54;17.73;;;16.02;;
52978;SDS011;63430;53.186;6.598;2023-04-08T09:41:57;18.15;;;16.35;;
52978;SDS011;63430;53.186;6.598;2023-04-08T09:44:05;16.30;;;14.65;;
52978;SDS011;63430;53.186;6.598;2023-04-08T09:48:14;15.73;;;14.05;;
52978;SDS011;63430;53.186;6.598;2023-04-08T09:50:23;16.63;;;14.95;;
52978;SDS011;63430;53.186;6.598;2023-04-08T09:52:32;18.92;;;17.08;;
52978;SDS011;63430;53.186;6.598;2023-04-08T09:54:41;18.67;;;16.88;;
52978;SDS011;63430;53.186;6.598;2023-04-08T09:56:56;21.58;;;19.70;;
52978;SDS011;63430;53.186;6.598;2023-04-08T09:59:08;21.92;;;19.92;;
52978;SDS011;63430;53.186;6.598;2023-04-08T10:01:21;16.35;;;14.75;;
52978;SDS011;63430;53.186;6.598;2023-04-08T10:03:30;18.08;;;16.38;;
52978;SDS011;63430;53.186;6.598;2023-04-08T10:05:40;20.10;;;18.17;;
52978;SDS011;63430;53.186;6.598;2023-04-08T10:07:46;20.15;;;18.50;;
52978;SDS011;63430;53.186;6.598;2023-04-08T10:09:51;20.67;;;18.88;;
52978;SDS011;63430;53.186;6.598;2023-04-08T10:11:57;21.92;;;20.08;;
52978;SDS011;63430;53.186;6.598;2023-04-08T10:13:59;19.13;;;17.35;;
52978;SDS011;63430;53.186;6.598;2023-04-08T10:16:16;18.90;;;16.63;;
52978;SDS011;63430;53.186;6.598;2023-04-08T10:18:30;19.83;;;17.83;;
52978;SDS011;63430;53.186;6.598;2023-04-08T10:20:43;19.77;;;17.92;;
52978;SDS011;63430;53.186;6.598;2023-04-08T10:22:50;18.27;;;16.55;;
52978;SDS011;63430;53.186;6.598;2023-04-08T10:27:39;19.88;;;17.88;;
52978;SDS011;63430;53.186;6.598;2023-04-08T10:29:42;22.98;;;18.33;;
52978;SDS011;63430;53.186;6.598;2023-04-08T10:31:47;20.67;;;18.58;;
52978;SDS011;63430;53.186;6.598;2023-04-08T10:33:51;21.02;;;13.95;;
52978;SDS011;63430;53.186;6.598;2023-04-08T10:35:54;22.77;;;20.45;;
52978;SDS011;63430;53.186;6.598;2023-04-08T10:38:01;23.83;;;19.17;;
52978;SDS011;63430;53.186;6.598;2023-04-08T10:40:04;21.17;;;18.48;;
52978;SDS011;63430;53.186;6.598;2023-04-08T10:42:08;18.02;;;16.35;;
52978;SDS011;63430;53.186;6.598;2023-04-08T10:44:26;18.55;;;16.77;;
52978;SDS011;63430;53.186;6.598;2023-04-08T10:46:36;22.38;;;20.08;;
52978;SDS011;63430;53.186;6.598;2023-04-08T10:48:39;19.45;;;17.45;;
52978;SDS011;63430;53.186;6.598;2023-04-08T10:50:42;24.15;;;21.80;;
52978;SDS011;63430;53.186;6.598;2023-04-08T10:52:55;18.90;;;16.50;;
52978;SDS011;63430;53.186;6.598;2023-04-08T10:54:58;19.85;;;17.75;;
52978;SDS011;63430;53.186;6.598;2023-04-08T10:57:01;22.98;;;20.10;;
52978;SDS011;63430;53.186;6.598;2023-04-08T10:59:09;26.20;;;20.15;;
52978;SDS011;63430;53.186;6.598;2023-04-08T11:01:15;23.38;;;19.02;;
52978;SDS011;63430;53.186;6.598;2023-04-08T11:03:23;22.67;;;17.45;;
52978;SDS011;63430;53.186;6.598;2023-04-08T11:05:29;21.25;;;18.95;;
52978;SDS011;63430;53.186;6.598;2023-04-08T11:07:32;21.20;;;19.13;;
52978;SDS011;63430;53.186;6.598;2023-04-08T11:09:40;22.08;;;19.92;;
52978;SDS011;63430;53.186;6.598;2023-04-08T11:11:43;25.90;;;23.52;;
52978;SDS011;63430;53.186;6.598;2023-04-08T11:13:47;19.98;;;17.25;;
52978;SDS011;63430;53.186;6.598;2023-04-08T11:15:54;24.95;;;17.58;;
52978;SDS011;63430;53.186;6.598;2023-04-08T11:18:05;18.90;;;17.10;;
52978;SDS011;63430;53.186;6.598;2023-04-08T11:20:09;20.00;;;17.00;;
52978;SDS011;63430;53.186;6.598;2023-04-08T11:22:12;24.55;;;18.77;;
52978;SDS011;63430;53.186;6.598;2023-04-08T11:24:15;19.95;;;17.40;;
52978;SDS011;63430;53.186;6.598;2023-04-08T11:26:18;21.05;;;18.48;;
52978;SDS011;63430;53.186;6.598;2023-04-08T11:28:21;22.55;;;17.92;;
52978;SDS011;63430;53.186;6.598;2023-04-08T11:30:25;19.85;;;17.88;;
52978;SDS011;63430;53.186;6.598;2023-04-08T11:32:29;21.38;;;18.67;;
52978;SDS011;63430;53.186;6.598;2023-04-08T11:34:37;27.75;;;24.52;;
52978;SDS011;63430;53.186;6.598;2023-04-08T11:36:41;24.38;;;21.98;;
52978;SDS011;63430;53.186;6.598;2023-04-08T11:38:43;30.48;;;25.20;;
52978;SDS011;63430;53.186;6.598;2023-04-08T11:40:51;25.48;;;18.98;;
52978;SDS011;63430;53.186;6.598;2023-04-08T11:42:55;26.63;;;20.58;;
52978;SDS011;63430;53.186;6.598;2023-04-08T11:44:58;21.70;;;18.73;;
52978;SDS011;63430;53.186;6.598;2023-04-08T11:47:00;25.38;;;23.02;;
52978;SDS011;63430;53.186;6.598;2023-04-08T11:49:03;25.27;;;22.50;;
52978;SDS011;63430;53.186;6.598;2023-04-08T11:51:14;21.85;;;18.33;;
52978;SDS011;63430;53.186;6.598;2023-04-08T11:53:17;18.17;;;14.88;;
52978;SDS011;63430;53.186;6.598;2023-04-08T11:55:21;36.60;;;33.17;;
52978;SDS011;63430;53.186;6.598;2023-04-08T11:57:27;22.25;;;18.50;;
52978;SDS011;63430;53.186;6.598;2023-04-08T11:59:33;24.00;;;14.88;;
52978;SDS011;63430;53.186;6.598;2023-04-08T12:01:36;23.70;;;21.48;;
52978;SDS011;63430;53.186;6.598;2023-04-08T12:03:52;26.85;;;18.00;;
52978;SDS011;63430;53.186;6.598;2023-04-08T12:05:55;25.17;;;16.52;;
52978;SDS011;63430;53.186;6.598;2023-04-08T12:08:00;19.58;;;16.90;;
52978;SDS011;63430;53.186;6.598;2023-04-08T12:10:04;23.05;;;16.55;;
52978;SDS011;63430;53.186;6.598;2023-04-08T12:14:11;21.95;;;16.85;;
52978;SDS011;63430;53.186;6.598;2023-04-08T12:16:13;18.13;;;13.45;;
52978;SDS011;63430;53.186;6.598;2023-04-08T12:18:16;21.80;;;16.17;;
52978;SDS011;63430;53.186;6.598;2023-04-08T12:20:18;19.88;;;17.88;;
52978;SDS011;63430;53.186;6.598;2023-04-08T12:22:27;22.88;;;20.58;;
52978;SDS011;63430;53.186;6.598;2023-04-08T12:24:33;22.67;;;19.45;;
52978;SDS011;63430;53.186;6.598;2023-04-08T12:26:35;34.00;;;30.75;;